Time;durP1;ratioP1;P1;durP2;ratioP2;P2;SDS_P1;SDS_P2;PMS_P1;PMS_P2;Temp;Humidity;BMP_temperature;BMP_pressure;BME280_temperature;BME280_humidity;BME280_pressure;Samples;Min_cycle;Max_cycle;Signal;HPM_P1;HPM_P2
2022/01/10 00:00:48;;;;;;;75.15;45.47;;;;;;;-144.47;100.00;61586.06;5001947;28;20477;-72
2022/01/10 00:03:14;;;;;;;78.78;45.42;;;;;;;-144.47;100.00;61586.06;5001453;28;20237;-72
2022/01/10 00:05:40;;;;;;;74.28;45.00;;;;;;;-144.47;100.00;61586.06;5004726;28;20084;-73
2022/01/10 00:08:06;;;;;;;75.03;45.28;;;;;;;-144.47;100.00;61586.06;5001934;28;20108;-72
2022/01/10 00:10:33;;;;;;;77.35;46.55;;;;;;;-144.47;100.00;61586.06;5001741;28;20117;-72
2022/01/10 00:12:59;;;;;;;74.50;45.85;;;;;;;-144.47;100.00;61586.06;5003520;28;20061;-72
2022/01/10 00:15:25;;;;;;;79.28;46.90;;;;;;;-144.47;100.00;61586.06;5001931;28;20479;-73
2022/01/10 00:17:50;;;;;;;78.32;46.35;;;;;;;-144.47;100.00;61586.06;5004569;28;20061;-72
2022/01/10 00:20:17;;;;;;;70.38;44.15;;;;;;;-144.47;100.00;61586.06;5001368;28;20113;-72
2022/01/10 00:22:46;;;;;;;77.63;45.30;;;;;;;-144.47;100.00;61586.06;5001666;28;20026;-72
2022/01/10 00:25:13;;;;;;;73.97;44.70;;;;;;;-144.47;100.00;61586.06;5003892;28;20037;-72
2022/01/10 00:27:39;;;;;;;81.00;45.97;;;;;;;-144.47;100.00;61586.06;5001627;28;20030;-72
2022/01/10 00:30:06;;;;;;;74.05;45.90;;;;;;;-144.47;100.00;61586.06;5003724;28;20042;-71
2022/01/10 00:32:32;;;;;;;73.32;45.45;;;;;;;-144.47;100.00;61586.06;5002197;28;20115;-72
2022/01/10 00:34:58;;;;;;;71.75;43.92;;;;;;;-144.47;100.00;61586.06;5002684;28;20062;-72
2022/01/10 00:37:23;;;;;;;70.43;44.42;;;;;;;-144.47;100.00;61586.06;5003625;28;20034;-72
2022/01/10 00:39:49;;;;;;;76.45;46.00;;;;;;;-144.47;100.00;61586.06;5005383;28;20022;-72
2022/01/10 00:42:16;;;;;;;74.90;45.90;;;;;;;-144.47;100.00;61586.06;5006012;28;20030;-74
2022/01/10 00:44:49;;;;;;;79.55;46.15;;;;;;;-144.47;100.00;61586.06;5002093;28;20030;-71
2022/01/10 00:47:16;;;;;;;75.20;45.35;;;;;;;-144.47;100.00;61586.06;5001350;28;20080;-72
2022/01/10 00:49:42;;;;;;;79.80;45.15;;;;;;;-144.47;100.00;61586.06;5000610;28;20058;-71
2022/01/10 00:52:08;;;;;;;69.85;43.88;;;;;;;-144.47;100.00;61586.06;5000026;28;20066;-73
2022/01/10 00:54:33;;;;;;;78.60;46.20;;;;;;;-144.47;100.00;61586.06;5003091;28;20038;-72
2022/01/10 00:56:59;;;;;;;70.80;44.10;;;;;;;-144.47;100.00;61586.06;5006356;28;20085;-71
2022/01/10 00:59:24;;;;;;;77.10;45.88;;;;;;;-144.47;100.00;61586.06;5032553;28;20121;-72
2022/01/10 01:01:50;;;;;;;77.85;45.47;;;;;;;-144.47;100.00;61586.06;5032400;28;20112;-71
2022/01/10 01:04:15;;;;;;;76.60;44.40;;;;;;;-144.47;100.00;61586.06;5031881;28;20040;-71
2022/01/10 01:06:41;;;;;;;73.05;45.15;;;;;;;-144.47;100.00;61586.06;5014276;28;20037;-72
2022/01/10 01:09:10;;;;;;;73.45;43.28;;;;;;;-144.47;100.00;61586.06;5014316;28;20444;-71
2022/01/10 01:14:36;;;;;;;73.43;44.47;;;;;;;-144.47;100.00;61586.06;5013882;28;20056;-72
2022/01/10 01:17:11;;;;;;;65.00;42.25;;;;;;;-144.47;100.00;61586.06;5031995;28;20336;-73
2022/01/10 01:20:08;;;;;;;71.95;42.60;;;;;;;-144.47;100.00;61586.06;5031904;28;20044;-72
2022/01/10 01:25:17;;;;;;;71.78;43.78;;;;;;;-144.47;100.00;61586.06;5027937;28;20044;-72
2022/01/10 01:27:44;;;;;;;69.85;42.25;;;;;;;-144.47;100.00;61586.06;5032090;28;20033;-70
2022/01/10 01:30:10;;;;;;;68.50;42.03;;;;;;;-144.47;100.00;61586.06;5031785;28;20124;-72
2022/01/10 01:32:36;;;;;;;71.32;42.80;;;;;;;-144.47;100.00;61586.06;5031476;28;20394;-71
2022/01/10 01:35:06;;;;;;;69.60;42.30;;;;;;;-144.47;100.00;61586.06;5013556;28;20508;-72
2022/01/10 01:37:32;;;;;;;67.00;41.95;;;;;;;-144.47;100.00;61586.06;5031473;28;20053;-73
2022/01/10 01:39:59;;;;;;;70.03;41.90;;;;;;;-144.47;100.00;61586.06;5011825;28;20022;-72
2022/01/10 01:42:37;;;;;;;70.45;42.35;;;;;;;-144.47;100.00;61586.06;5014562;28;20128;-72
2022/01/10 01:45:10;;;;;;;71.45;43.05;;;;;;;-144.47;100.00;61586.06;5015475;28;20120;-73
2022/01/10 01:47:36;;;;;;;67.35;42.60;;;;;;;-144.47;100.00;61586.06;5014044;28;20905;-71
2022/01/10 01:50:07;;;;;;;75.45;44.22;;;;;;;-144.47;100.00;61586.06;5011252;28;20047;-73
2022/01/10 01:52:34;;;;;;;74.35;43.20;;;;;;;-144.47;100.00;61586.06;5010819;28;20033;-73
2022/01/10 01:55:01;;;;;;;76.72;43.83;;;;;;;-144.47;100.00;61586.06;5011376;28;20044;-71
2022/01/10 01:57:28;;;;;;;69.00;39.85;;;;;;;-144.47;100.00;61586.06;5029708;28;20046;-71
2022/01/10 01:59:55;;;;;;;64.78;38.65;;;;;;;-144.47;100.00;61586.06;5013735;28;20067;-71
2022/01/10 02:02:21;;;;;;;62.15;38.17;;;;;;;-144.47;100.00;61586.06;5012898;28;20509;-71
2022/01/10 02:04:46;;;;;;;60.05;37.50;;;;;;;-144.47;100.00;61586.06;5013387;28;20025;-70
2022/01/10 02:07:12;;;;;;;64.13;39.00;;;;;;;-144.47;100.00;61586.06;5012900;28;20091;-71
2022/01/10 02:09:41;;;;;;;58.80;37.70;;;;;;;-144.47;100.00;61586.06;5013139;28;20025;-71
2022/01/10 02:12:06;;;;;;;66.07;39.53;;;;;;;-144.47;100.00;61586.06;5012740;28;20497;-72
2022/01/10 02:14:32;;;;;;;59.92;36.33;;;;;;;-144.47;100.00;61586.06;4995884;28;20033;-71
2022/01/10 02:16:58;;;;;;;57.72;36.35;;;;;;;-144.47;100.00;61586.06;5013084;28;20029;-72
2022/01/10 02:19:34;;;;;;;56.03;35.95;;;;;;;-144.47;100.00;61586.06;5013068;28;20033;-72
2022/01/10 02:22:00;;;;;;;57.20;36.15;;;;;;;-144.47;100.00;61586.06;5029683;28;20033;-71
2022/01/10 02:24:32;;;;;;;58.35;35.22;;;;;;;-144.47;100.00;61586.06;5012625;28;20033;-72
2022/01/10 02:26:59;;;;;;;58.35;36.85;;;;;;;-144.47;100.00;61586.06;4997089;28;20143;-72
2022/01/10 02:29:25;;;;;;;59.10;37.00;;;;;;;-144.47;100.00;61586.06;5030064;28;20037;-72
2022/01/10 02:31:50;;;;;;;59.50;36.05;;;;;;;-144.47;100.00;61586.06;5012891;28;20033;-71
2022/01/10 02:34:19;;;;;;;59.97;36.90;;;;;;;-144.47;100.00;61586.06;5012664;28;20037;-71
2022/01/10 02:36:45;;;;;;;57.50;36.70;;;;;;;-144.47;100.00;61586.06;5025765;28;20104;-71
2022/01/10 02:39:11;;;;;;;62.10;38.05;;;;;;;-144.47;100.00;61586.06;5012136;28;20033;-72
2022/01/10 02:41:43;;;;;;;58.92;37.08;;;;;;;-144.47;100.00;61586.06;5030136;28;20030;-71
2022/01/10 02:44:14;;;;;;;58.42;37.08;;;;;;;-144.47;100.00;61586.06;5030395;28;20052;-72
2022/01/10 02:46:40;;;;;;;60.38;37.15;;;;;;;-144.47;100.00;61586.06;5011663;28;20073;-72
2022/01/10 02:49:28;;;;;;;66.85;40.72;;;;;;;-144.47;100.00;61586.06;5003534;28;20516;-72
2022/01/10 02:51:57;;;;;;;65.20;39.42;;;;;;;-144.47;100.00;61586.06;5022374;28;20109;-71
2022/01/10 02:54:25;;;;;;;63.47;40.72;;;;;;;-144.47;100.00;61586.06;5011197;28;20041;-72
2022/01/10 02:56:54;;;;;;;67.82;40.40;;;;;;;-144.47;100.00;61586.06;5011500;28;20045;-72
2022/01/10 02:59:22;;;;;;;71.43;43.20;;;;;;;-144.47;100.00;61586.06;5011651;28;20040;-72
2022/01/10 03:01:48;;;;;;;70.50;42.33;;;;;;;-144.47;100.00;61586.06;5013210;28;20033;-73
2022/01/10 03:04:15;;;;;;;68.45;40.33;;;;;;;-144.47;100.00;61586.06;5008829;28;20100;-72
2022/01/10 03:06:41;;;;;;;74.95;43.22;;;;;;;-144.47;100.00;61586.06;5011992;28;20033;-72
2022/01/10 03:09:09;;;;;;;72.55;41.40;;;;;;;-144.47;100.00;61586.06;5011882;28;20034;-72
2022/01/10 03:11:37;;;;;;;76.22;42.63;;;;;;;-144.47;100.00;61586.06;5029687;28;20431;-72
2022/01/10 03:14:03;;;;;;;68.85;43.03;;;;;;;-144.47;100.00;61586.06;5011362;28;20116;-72
2022/01/10 03:16:30;;;;;;;74.22;44.17;;;;;;;-144.47;100.00;61586.06;5011602;28;20059;-72
2022/01/10 03:18:55;;;;;;;71.07;42.95;;;;;;;-144.47;100.00;61586.06;5012022;28;20068;-73
2022/01/10 03:21:21;;;;;;;71.00;42.78;;;;;;;-144.47;100.00;61586.06;5008185;28;20026;-73
2022/01/10 03:23:48;;;;;;;74.63;42.80;;;;;;;-144.47;100.00;61586.06;5029196;28;20390;-72
2022/01/10 03:26:14;;;;;;;72.32;42.95;;;;;;;-144.47;100.00;61586.06;5025337;28;20035;-73
2022/01/10 03:28:39;;;;;;;72.15;42.72;;;;;;;-144.47;100.00;61586.06;5011802;28;20036;-72
2022/01/10 03:31:05;;;;;;;72.20;42.40;;;;;;;-144.47;100.00;61586.06;5029434;28;20060;-73
2022/01/10 03:33:30;;;;;;;71.93;42.30;;;;;;;-144.47;100.00;61586.06;5011446;28;20033;-72
2022/01/10 03:35:56;;;;;;;76.43;43.70;;;;;;;-144.47;100.00;61586.06;5011955;28;20036;-73
2022/01/10 03:38:22;;;;;;;78.47;45.70;;;;;;;-144.47;100.00;61586.06;5011164;28;20021;-72
2022/01/10 03:40:47;;;;;;;67.63;41.65;;;;;;;-144.47;100.00;61586.06;5011713;28;20022;-72
2022/01/10 03:43:18;;;;;;;71.97;41.38;;;;;;;-144.47;100.00;61586.06;5007868;28;20041;-73
2022/01/10 03:45:45;;;;;;;66.78;41.03;;;;;;;-144.47;100.00;61586.06;5021410;28;20030;-72
2022/01/10 03:48:12;;;;;;;65.85;38.97;;;;;;;-144.47;100.00;61586.06;5011458;28;20433;-72
2022/01/10 03:50:37;;;;;;;62.35;38.67;;;;;;;-144.47;100.00;61586.06;5011551;28;20033;-72
2022/01/10 03:53:03;;;;;;;60.55;38.05;;;;;;;-144.47;100.00;61586.06;5011239;28;20072;-72
2022/01/10 03:55:30;;;;;;;59.78;36.63;;;;;;;-144.47;100.00;61586.06;5010802;28;20030;-70
2022/01/10 03:57:57;;;;;;;61.13;36.30;;;;;;;-144.47;100.00;61586.06;5011285;28;20041;-72
2022/01/10 04:00:23;;;;;;;64.55;37.55;;;;;;;-144.47;100.00;61586.06;5031152;28;20419;-72
2022/01/10 04:02:56;;;;;;;61.47;36.47;;;;;;;-144.47;100.00;61586.06;5031667;28;20039;-73
2022/01/10 04:05:27;;;;;;;60.00;38.00;;;;;;;-144.47;100.00;61586.06;5009250;28;20025;-72
2022/01/10 04:07:52;;;;;;;64.72;37.42;;;;;;;-144.47;100.00;61586.06;5011378;28;20099;-72
2022/01/10 04:10:18;;;;;;;61.20;36.85;;;;;;;-144.47;100.00;61586.06;4994731;28;20061;-72
2022/01/10 04:12:44;;;;;;;60.45;36.38;;;;;;;-144.47;100.00;61586.06;5003155;28;20060;-72
2022/01/10 04:15:10;;;;;;;61.72;36.35;;;;;;;-144.47;100.00;61586.06;5028702;28;20426;-72
2022/01/10 04:17:36;;;;;;;62.72;36.85;;;;;;;-144.47;100.00;61586.06;5011319;28;20025;-71
2022/01/10 04:20:04;;;;;;;58.53;37.40;;;;;;;-144.47;100.00;61586.06;5029280;28;20026;-71
2022/01/10 04:22:29;;;;;;;59.58;37.85;;;;;;;-144.47;100.00;61586.06;5028559;28;20064;-72
2022/01/10 04:24:55;;;;;;;58.20;35.13;;;;;;;-144.47;100.00;61586.06;5013374;28;20029;-71
2022/01/10 04:27:20;;;;;;;63.17;37.88;;;;;;;-144.47;100.00;61586.06;5014219;28;20079;-73
2022/01/10 04:29:46;;;;;;;62.83;36.95;;;;;;;-144.47;100.00;61586.06;5032636;28;20110;-73
2022/01/10 04:32:12;;;;;;;62.95;37.97;;;;;;;-144.47;100.00;61586.06;5014334;28;20128;-73
2022/01/10 04:34:39;;;;;;;62.33;37.55;;;;;;;-144.47;100.00;61586.06;5014706;28;20864;-71
2022/01/10 04:37:06;;;;;;;60.53;36.22;;;;;;;-144.47;100.00;61586.06;5032273;28;20064;-73
2022/01/10 04:39:33;;;;;;;66.75;39.13;;;;;;;-144.47;100.00;61586.06;5014467;28;20097;-71
2022/01/10 04:41:59;;;;;;;62.25;38.83;;;;;;;-144.47;100.00;61586.06;5014122;28;20095;-73
2022/01/10 04:44:26;;;;;;;64.35;36.78;;;;;;;-144.47;100.00;61586.06;5013781;28;20473;-71
2022/01/10 04:46:52;;;;;;;59.83;36.90;;;;;;;-144.47;100.00;61586.06;5014511;28;20037;-73
2022/01/10 04:49:24;;;;;;;57.80;35.35;;;;;;;-144.47;100.00;61586.06;5014100;28;20037;-72
2022/01/10 04:51:51;;;;;;;58.00;34.78;;;;;;;-144.47;100.00;61586.06;5014337;28;20036;-73
2022/01/10 04:54:17;;;;;;;55.92;35.40;;;;;;;-144.47;100.00;61586.06;5014512;28;20458;-73
2022/01/10 04:56:44;;;;;;;58.42;35.10;;;;;;;-144.47;100.00;61586.06;5014757;28;20045;-73
2022/01/10 04:59:10;;;;;;;60.33;36.88;;;;;;;-144.47;100.00;61586.06;5013619;28;20087;-73
2022/01/10 05:01:36;;;;;;;55.55;35.95;;;;;;;-144.47;100.00;61586.06;5015711;28;20104;-73
2022/01/10 05:04:01;;;;;;;61.22;35.92;;;;;;;-144.47;100.00;61586.06;5025559;28;20037;-72
2022/01/10 05:06:27;;;;;;;57.15;35.17;;;;;;;-144.47;100.00;61586.06;5012862;28;20026;-71
2022/01/10 05:08:53;;;;;;;56.20;35.33;;;;;;;-144.47;100.00;61586.06;5021118;28;20088;-72
2022/01/10 05:11:45;;;;;;;59.25;35.72;;;;;;;-144.47;100.00;61586.06;5020121;28;20498;-72
2022/01/10 05:14:11;;;;;;;61.13;35.60;;;;;;;-144.47;100.00;61586.06;5022671;28;20120;-72
2022/01/10 05:16:39;;;;;;;53.13;34.67;;;;;;;-144.47;100.00;61586.06;5011556;28;20084;-73
2022/01/10 05:19:05;;;;;;;60.03;35.47;;;;;;;-144.47;100.00;61586.06;5013444;28;20037;-72
2022/01/10 05:21:30;;;;;;;53.88;34.53;;;;;;;-144.47;100.00;61586.06;5022217;28;20492;-73
2022/01/10 05:23:56;;;;;;;56.40;33.25;;;;;;;-144.47;100.00;61586.06;5021206;28;20033;-73
2022/01/10 05:26:21;;;;;;;55.28;34.72;;;;;;;-144.47;100.00;61586.06;5010552;28;20494;-73
2022/01/10 05:28:47;;;;;;;53.60;32.00;;;;;;;-144.47;100.00;61586.06;5013556;28;20040;-73
2022/01/10 05:31:13;;;;;;;55.15;34.15;;;;;;;-144.47;100.00;61586.06;5010112;28;20105;-71
2022/01/10 05:33:55;;;;;;;49.92;32.42;;;;;;;-144.47;100.00;61586.06;5009896;28;20089;-72
2022/01/10 05:36:22;;;;;;;50.90;31.25;;;;;;;-144.47;100.00;61586.06;5009225;28;20069;-72
2022/01/10 05:38:47;;;;;;;51.83;31.90;;;;;;;-144.47;100.00;61586.06;5023031;28;20060;-71
2022/01/10 05:41:13;;;;;;;54.33;32.53;;;;;;;-144.47;100.00;61586.06;5019777;28;20029;-71
2022/01/10 05:43:39;;;;;;;49.40;32.30;;;;;;;-144.47;100.00;61586.06;5012560;28;20033;-72
2022/01/10 05:46:08;;;;;;;52.42;32.35;;;;;;;-144.47;100.00;61586.06;5011381;28;20452;-70
2022/01/10 05:48:36;;;;;;;49.60;31.15;;;;;;;-144.47;100.00;61586.06;5021277;28;20042;-71
2022/01/10 05:51:03;;;;;;;56.70;31.50;;;;;;;-144.47;100.00;61586.06;5013283;28;20059;-72
2022/01/10 05:53:31;;;;;;;49.00;31.02;;;;;;;-144.47;100.00;61586.06;5011485;28;20037;-72
2022/01/10 05:55:57;;;;;;;53.33;32.17;;;;;;;-144.47;100.00;61586.06;5011156;28;20367;-72
2022/01/10 05:58:23;;;;;;;52.80;32.78;;;;;;;-144.47;100.00;61586.06;5010276;28;20092;-72
2022/01/10 06:00:49;;;;;;;56.35;34.53;;;;;;;-144.47;100.00;61586.06;5013649;28;20346;-71
2022/01/10 06:03:15;;;;;;;52.58;33.08;;;;;;;-144.47;100.00;61586.06;5020100;28;20038;-72
2022/01/10 06:05:55;;;;;;;;;;;;;;;-144.47;100.00;61586.06;5008134;28;20159;-72
2022/01/10 06:08:22;;;;;;;57.13;32.22;;;;;;;-144.47;100.00;61586.06;5009345;28;19937;-72
2022/01/10 06:10:47;;;;;;;62.78;34.03;;;;;;;-144.47;100.00;61586.06;5013558;28;20501;-72
2022/01/10 06:13:33;;;;;;;54.28;32.55;;;;;;;-144.47;100.00;61586.06;5010597;28;20376;-76
2022/01/10 06:15:59;;;;;;;58.58;34.03;;;;;;;-144.47;100.00;61586.06;5011757;28;20037;-76
2022/01/10 06:18:25;;;;;;;62.15;35.65;;;;;;;-144.47;100.00;61586.06;5010134;28;20212;-76
2022/01/10 06:20:54;;;;;;;52.42;33.05;;;;;;;-144.47;100.00;61586.06;4774495;28;10000514;-74
2022/01/10 06:23:22;;;;;;;52.55;33.22;;;;;;;-144.47;100.00;61586.06;5004416;28;20724;-75
2022/01/10 06:25:48;;;;;;;59.80;33.75;;;;;;;-144.47;100.00;61586.06;5016559;28;20108;-74
2022/01/10 06:28:15;;;;;;;53.85;32.55;;;;;;;-144.47;100.00;61586.06;5007882;28;20221;-76
2022/01/10 06:30:41;;;;;;;59.33;34.10;;;;;;;-144.47;100.00;61586.06;5009039;28;20052;-77
2022/01/10 06:33:07;;;;;;;53.30;33.60;;;;;;;-144.47;100.00;61586.06;5007705;28;20468;-76
2022/01/10 06:35:34;;;;;;;57.42;32.88;;;;;;;-144.47;100.00;61586.06;5017949;28;20030;-77
2022/01/10 06:38:00;;;;;;;57.33;33.67;;;;;;;-144.47;100.00;61586.06;5008635;28;20073;-77
2022/01/10 06:40:26;;;;;;;58.60;34.42;;;;;;;-144.47;100.00;61586.06;5023822;28;20036;-76
2022/01/10 06:42:52;;;;;;;56.05;33.67;;;;;;;-144.47;100.00;61586.06;5009950;28;20025;-78
2022/01/10 06:45:20;;;;;;;56.75;34.38;;;;;;;-144.47;100.00;61586.06;5006076;28;20119;-76
2022/01/10 06:47:46;;;;;;;55.58;33.45;;;;;;;-144.47;100.00;61586.06;5019079;28;20100;-77
2022/01/10 06:50:13;;;;;;;60.35;34.17;;;;;;;-144.47;100.00;61586.06;5018523;28;20037;-78
2022/01/10 06:52:42;;;;;;;43.75;26.70;;;;;;;-144.47;100.00;61586.06;5006744;28;20053;-77
2022/01/10 06:55:08;;;;;;;58.45;35.28;;;;;;;-144.47;100.00;61586.06;5008209;28;20573;-78
2022/01/10 06:57:34;;;;;;;66.25;34.75;;;;;;;-144.47;100.00;61586.06;4325245;28;10000738;-81
2022/01/10 07:00:02;;;;;;;61.15;35.78;;;;;;;-144.47;100.00;61586.06;5008337;28;20527;-81
2022/01/10 07:02:29;;;;;;;59.15;34.20;;;;;;;-144.47;100.00;61586.06;5010748;28;20490;-79
2022/01/10 07:04:55;;;;;;;58.67;34.88;;;;;;;-144.47;100.00;61586.06;5009424;28;20101;-80
2022/01/10 07:07:21;;;;;;;57.42;34.72;;;;;;;-144.47;100.00;61586.06;4992050;28;20033;-81
2022/01/10 07:09:49;;;;;;;54.10;34.15;;;;;;;-144.47;100.00;61586.06;5009428;28;20029;-81
2022/01/10 07:12:14;;;;;;;58.78;35.38;;;;;;;-144.47;100.00;61586.06;5012242;28;20045;-82
2022/01/10 07:14:51;;;;;;;59.08;33.40;;;;;;;-144.47;100.00;61586.06;5009646;28;20025;-83
2022/01/10 07:17:16;;;;;;;55.78;33.72;;;;;;;-144.47;100.00;61586.06;5009019;28;20367;-81
2022/01/10 07:19:42;;;;;;;57.85;34.40;;;;;;;-144.47;100.00;61586.06;5012010;28;20038;-82
2022/01/10 07:22:12;;;;;;;61.90;35.72;;;;;;;-144.47;100.00;61586.06;5012207;28;20144;-81
2022/01/10 07:24:40;;;;;;;60.00;34.70;;;;;;;-144.47;100.00;61586.06;5008947;28;20491;-83
2022/01/10 07:27:06;;;;;;;58.97;33.85;;;;;;;-144.47;100.00;61586.06;5011402;28;20037;-82
2022/01/10 07:29:31;;;;;;;61.10;34.95;;;;;;;-144.47;100.00;61586.06;5020366;28;20033;-82
2022/01/10 07:31:58;;;;;;;56.30;34.28;;;;;;;-144.47;100.00;61586.06;5009856;28;20046;-82
2022/01/10 07:34:25;;;;;;;57.20;33.72;;;;;;;-144.47;100.00;61586.06;5023087;28;20043;-81
2022/01/10 07:36:51;;;;;;;61.00;34.95;;;;;;;-144.47;100.00;61586.06;5026582;28;20073;-82
2022/01/10 07:39:16;;;;;;;53.53;32.88;;;;;;;-144.47;100.00;61586.06;5033841;28;20042;-82
2022/01/10 07:41:42;;;;;;;52.35;33.67;;;;;;;-144.47;100.00;61586.06;5017008;28;20091;-81
2022/01/10 07:44:13;;;;;;;58.25;33.90;;;;;;;-144.47;100.00;61586.06;5012251;28;20032;-82
2022/01/10 07:46:39;;;;;;;53.95;33.53;;;;;;;-144.47;100.00;61586.06;5010226;28;20113;-80
2022/01/10 07:49:04;;;;;;;58.60;34.70;;;;;;;-144.47;100.00;61586.06;5020955;28;20104;-83
2022/01/10 07:51:29;;;;;;;61.55;35.25;;;;;;;-144.47;100.00;61586.06;5020425;28;20542;-83
2022/01/10 07:53:55;;;;;;;58.25;33.10;;;;;;;-144.47;100.00;61586.06;5019016;28;20096;-82
2022/01/10 07:56:21;;;;;;;55.92;34.22;;;;;;;-144.47;100.00;61586.06;5021796;28;20394;-82
2022/01/10 07:58:51;;;;;;;62.75;35.20;;;;;;;-144.47;100.00;61586.06;5018991;28;20166;-82
2022/01/10 08:01:19;;;;;;;66.45;36.50;;;;;;;-144.47;100.00;61586.06;5022334;28;20104;-83
2022/01/10 08:03:50;;;;;;;58.83;36.15;;;;;;;-144.47;100.00;61586.06;5025961;28;20033;-82
2022/01/10 08:06:17;;;;;;;66.55;37.85;;;;;;;-144.47;100.00;61586.06;5026691;28;20029;-81
2022/01/10 08:08:43;;;;;;;63.00;37.75;;;;;;;-144.47;100.00;61586.06;5022420;28;20033;-78
2022/01/10 08:11:08;;;;;;;63.63;37.95;;;;;;;-144.47;100.00;61586.06;5024789;28;20102;-79
2022/01/10 08:13:35;;;;;;;64.30;37.00;;;;;;;-144.47;100.00;61586.06;5022916;28;20037;-77
2022/01/10 08:16:00;;;;;;;66.25;36.97;;;;;;;-144.47;100.00;61586.06;5013324;28;20123;-80
2022/01/10 08:18:26;;;;;;;63.63;38.10;;;;;;;-144.47;100.00;61586.06;5015077;28;20474;-78
2022/01/10 08:20:53;;;;;;;68.07;38.80;;;;;;;-144.47;100.00;61586.06;5026582;28;20037;-80
2022/01/10 08:23:18;;;;;;;64.32;38.08;;;;;;;-144.47;100.00;61586.06;5017161;28;20041;-78
2022/01/10 08:25:45;;;;;;;64.13;39.13;;;;;;;-144.47;100.00;61586.06;5003795;28;20042;-77
2022/01/10 08:28:10;;;;;;;68.40;39.78;;;;;;;-144.47;100.00;61586.06;5021455;28;20046;-79
2022/01/10 08:30:36;;;;;;;66.88;38.28;;;;;;;-144.47;100.00;61586.06;4997674;28;20063;-77
2022/01/10 08:33:02;;;;;;;61.85;37.78;;;;;;;-144.47;100.00;61586.06;5014350;28;20026;-77
2022/01/10 08:35:27;;;;;;;63.15;37.55;;;;;;;-144.47;100.00;61586.06;5023958;28;20497;-77
2022/01/10 08:37:53;;;;;;;69.88;39.70;;;;;;;-144.47;100.00;61586.06;5021113;28;20479;-77
2022/01/10 08:40:18;;;;;;;69.72;39.67;;;;;;;-144.47;100.00;61586.06;5014987;28;20038;-77
2022/01/10 08:42:44;;;;;;;69.60;40.72;;;;;;;-144.47;100.00;61586.06;4995569;28;20459;-79
2022/01/10 08:45:10;;;;;;;66.55;39.97;;;;;;;-144.47;100.00;61586.06;5011912;28;20053;-79
2022/01/10 08:47:36;;;;;;;70.60;40.13;;;;;;;-144.47;100.00;61586.06;5024717;28;20033;-78
2022/01/10 08:50:04;;;;;;;71.57;41.33;;;;;;;-144.47;100.00;61586.06;5022225;28;20038;-78
2022/01/10 08:52:30;;;;;;;73.65;42.67;;;;;;;-144.47;100.00;61586.06;5008529;28;20045;-77
2022/01/10 08:54:55;;;;;;;71.43;42.17;;;;;;;-144.47;100.00;61586.06;5024497;28;20087;-78
2022/01/10 08:57:21;;;;;;;68.13;41.65;;;;;;;-144.47;100.00;61586.06;5022899;28;20033;-78
2022/01/10 08:59:46;;;;;;;66.90;40.70;;;;;;;-144.47;100.00;61586.06;5032104;28;20022;-77
2022/01/10 09:02:12;;;;;;;71.20;41.30;;;;;;;-144.47;100.00;61586.06;5044603;28;20086;-79
2022/01/10 09:04:39;;;;;;;69.63;42.33;;;;;;;-144.47;100.00;61586.06;5044422;28;20045;-78
2022/01/10 09:07:05;;;;;;;70.50;40.90;;;;;;;-144.47;100.00;61586.06;5037434;28;20041;-79
2022/01/10 09:09:31;;;;;;;73.47;43.88;;;;;;;-144.47;100.00;61586.06;5043988;28;20049;-82
2022/01/10 09:11:57;;;;;;;78.18;44.40;;;;;;;-144.47;100.00;61586.06;5031615;28;20033;-81
2022/01/10 09:14:22;;;;;;;72.20;43.05;;;;;;;-144.47;100.00;61586.06;5045513;28;20037;-84
2022/01/10 09:16:48;;;;;;;71.45;44.53;;;;;;;-144.47;100.00;61586.06;5031509;28;20026;-82
2022/01/10 09:19:13;;;;;;;70.85;44.17;;;;;;;-144.47;100.00;61586.06;5024694;28;20033;-81
2022/01/10 09:21:39;;;;;;;73.40;43.55;;;;;;;-144.47;100.00;61586.06;5012029;28;20045;-79
2022/01/10 09:24:05;;;;;;;66.72;42.53;;;;;;;-144.47;100.00;61586.06;5024596;28;20034;-78
2022/01/10 09:26:31;;;;;;;72.00;44.40;;;;;;;-144.47;100.00;61586.06;5023080;28;20053;-78
2022/01/10 09:28:56;;;;;;;70.68;43.95;;;;;;;-144.47;100.00;61586.06;5021481;28;20037;-81
2022/01/10 09:31:22;;;;;;;72.50;43.38;;;;;;;-144.47;100.00;61586.06;5023890;28;20029;-79
2022/01/10 09:33:53;;;;;;;73.57;44.42;;;;;;;-144.47;100.00;61586.06;5020736;28;20025;-82
2022/01/10 09:36:19;;;;;;;82.93;45.53;;;;;;;-144.47;100.00;61586.06;5020151;28;20025;-84
2022/01/10 09:38:45;;;;;;;73.13;44.22;;;;;;;-144.47;100.00;61586.06;5019553;28;20461;-78
2022/01/10 09:41:11;;;;;;;76.68;44.00;;;;;;;-144.47;100.00;61586.06;5026265;28;20049;-80
2022/01/10 09:43:37;;;;;;;76.95;46.58;;;;;;;-144.47;100.00;61586.06;5022433;28;20032;-80
2022/01/10 09:46:03;;;;;;;75.13;44.80;;;;;;;-144.47;100.00;61586.06;5024422;28;20038;-80
2022/01/10 09:48:29;;;;;;;80.22;46.17;;;;;;;-144.47;100.00;61586.06;5025013;28;20029;-82
2022/01/10 09:50:54;;;;;;;81.28;47.78;;;;;;;-144.47;100.00;61586.06;5023313;28;20042;-78
2022/01/10 09:53:21;;;;;;;81.43;47.90;;;;;;;-144.47;100.00;61586.06;5024474;28;20033;-80
2022/01/10 09:55:48;;;;;;;78.35;46.33;;;;;;;-144.47;100.00;61586.06;5019071;28;20076;-81
2022/01/10 09:58:14;;;;;;;80.10;46.55;;;;;;;-144.47;100.00;61586.06;5021596;28;20049;-82
2022/01/10 10:00:40;;;;;;;81.75;49.13;;;;;;;-144.47;100.00;61586.06;5023889;28;20032;-83
2022/01/10 10:03:07;;;;;;;77.30;48.13;;;;;;;-144.47;100.00;61586.06;5031325;28;20025;-82
2022/01/10 10:05:34;;;;;;;81.47;49.40;;;;;;;-144.47;100.00;61586.06;5029476;28;20040;-82
2022/01/10 10:08:00;;;;;;;79.78;48.05;;;;;;;-144.47;100.00;61586.06;5035527;28;20026;-82
2022/01/10 10:10:29;;;;;;;72.60;46.38;;;;;;;-144.47;100.00;61586.06;5024059;28;20033;-81
2022/01/10 10:12:55;;;;;;;82.47;46.83;;;;;;;-144.47;100.00;61586.06;5015238;28;20045;-84
2022/01/10 10:15:27;;;;;;;78.60;46.95;;;;;;;-144.47;100.00;61586.06;5016203;28;20121;-84
2022/01/10 10:17:53;;;;;;;72.80;46.88;;;;;;;-144.47;100.00;61586.06;5000479;28;20057;-82
2022/01/10 10:20:21;;;;;;;75.82;45.20;;;;;;;-144.47;100.00;61586.06;5028436;28;20033;-82
2022/01/10 10:22:49;;;;;;;75.45;44.00;;;;;;;-144.47;100.00;61586.06;5013999;28;20030;-83
2022/01/10 10:25:15;;;;;;;74.65;45.63;;;;;;;-144.47;100.00;61586.06;5026917;28;20033;-83
2022/01/10 10:27:44;;;;;;;75.57;45.08;;;;;;;-144.47;100.00;61586.06;5024531;28;20032;-81
2022/01/10 10:30:14;;;;;;;74.30;46.00;;;;;;;-144.47;100.00;61586.06;5025074;28;20080;-82
2022/01/10 10:32:40;;;;;;;;;;;;;;;-144.47;100.00;61586.06;5014092;28;20037;-82
2022/01/10 10:35:07;;;;;;;75.22;44.50;;;;;;;-144.47;100.00;61586.06;5027243;28;19918;-84
2022/01/10 10:37:38;;;;;;;74.40;45.30;;;;;;;-144.47;100.00;61586.06;5034513;28;20033;-85
2022/01/10 10:40:09;;;;;;;68.93;41.78;;;;;;;-144.47;100.00;61586.06;5018258;28;20025;-83
2022/01/10 10:42:37;;;;;;;70.88;44.08;;;;;;;-144.47;100.00;61586.06;5027692;28;20068;-81
2022/01/10 10:45:06;;;;;;;78.80;45.10;;;;;;;-144.47;100.00;61586.06;4999643;28;20029;-81
2022/01/10 10:47:36;;;;;;;70.40;41.25;;;;;;;-144.47;100.00;61586.06;5022295;28;20047;-81
2022/01/10 10:50:05;;;;;;;68.80;42.45;;;;;;;-144.47;100.00;61586.06;5025349;28;20508;-78
2022/01/10 10:52:33;;;;;;;75.60;44.75;;;;;;;-144.47;100.00;61586.06;5025097;28;20087;-79
2022/01/10 10:55:12;;;;;;;72.22;42.75;;;;;;;-144.47;100.00;61586.06;5023601;28;20390;-82
2022/01/10 10:57:39;;;;;;;77.97;43.45;;;;;;;-144.47;100.00;61586.06;5008074;28;20044;-82
2022/01/10 11:00:08;;;;;;;66.95;42.95;;;;;;;-144.47;100.00;61586.06;5007831;28;20125;-80